Time;durP1;ratioP1;P1;durP2;ratioP2;P2;SDS_P1;SDS_P2;PMS_P1;PMS_P2;Temp;Humidity;BMP_temperature;BMP_pressure;BME280_temperature;BME280_humidity;BME280_pressure;Samples;Min_cycle;Max_cycle;Signal;HPM_P1;HPM_P2
2023/04/20 00:02:06;;;;;;;10.38;8.05;;;8.20;99.90;;;;;;4995860;28;20040;-71
2023/04/20 00:04:32;;;;;;;10.15;7.43;;;8.20;99.90;;;;;;4997524;28;20045;-72
2023/04/20 00:06:58;;;;;;;11.43;7.80;;;8.20;99.90;;;;;;4996385;28;20038;-72
2023/04/20 00:09:25;;;;;;;13.35;7.95;;;8.30;99.90;;;;;;4995485;28;20550;-72
2023/04/20 00:11:50;;;;;;;10.70;7.75;;;8.30;99.90;;;;;;4996313;28;20060;-72
2023/04/20 00:14:16;;;;;;;11.13;7.57;;;8.20;99.90;;;;;;4995041;28;20117;-72
2023/04/20 00:16:42;;;;;;;9.38;7.75;;;8.20;99.90;;;;;;4995799;28;20025;-71
2023/04/20 00:19:08;;;;;;;10.70;7.57;;;8.20;99.90;;;;;;4995160;28;20034;-71
2023/04/20 00:21:34;;;;;;;12.90;7.90;;;8.20;99.90;;;;;;4994912;28;20061;-72
2023/04/20 00:24:00;;;;;;;13.10;9.07;;;8.20;99.90;;;;;;4995368;28;20030;-73
2023/04/20 00:26:26;;;;;;;10.95;8.00;;;8.20;99.90;;;;;;4997557;28;20030;-73
2023/04/20 00:28:51;;;;;;;11.15;8.45;;;8.20;99.90;;;;;;4995067;28;20109;-73
2023/04/20 00:31:18;;;;;;;11.95;8.57;;;8.20;99.90;;;;;;4995254;28;20413;-73
2023/04/20 00:33:44;;;;;;;11.32;7.20;;;8.20;99.90;;;;;;4996667;28;20045;-73
2023/04/20 00:36:09;;;;;;;11.00;8.40;;;8.20;99.90;;;;;;4996724;28;20038;-73
2023/04/20 00:38:35;;;;;;;9.60;7.00;;;8.20;99.90;;;;;;4995369;28;20501;-73
2023/04/20 00:41:01;;;;;;;9.40;7.13;;;8.20;99.90;;;;;;4995228;28;20091;-74
2023/04/20 00:43:26;;;;;;;10.07;7.53;;;8.20;99.90;;;;;;4996015;28;20120;-73
2023/04/20 00:45:52;;;;;;;9.50;7.32;;;8.20;99.90;;;;;;4997500;28;20504;-73
2023/04/20 00:48:18;;;;;;;11.48;8.38;;;8.20;99.90;;;;;;4993984;28;20462;-73
2023/04/20 00:50:44;;;;;;;9.13;7.53;;;8.20;99.90;;;;;;4996280;28;20053;-74
2023/04/20 00:53:11;;;;;;;11.77;7.57;;;8.20;99.90;;;;;;5000719;28;20069;-73
2023/04/20 00:55:37;;;;;;;9.30;7.40;;;8.20;99.90;;;;;;4996045;28;20030;-73
2023/04/20 00:58:03;;;;;;;9.95;7.07;;;8.20;99.90;;;;;;4997751;28;20489;-74
2023/04/20 01:00:29;;;;;;;9.02;7.13;;;8.20;99.90;;;;;;4995907;28;20046;-74
2023/04/20 01:02:55;;;;;;;8.18;6.97;;;8.30;99.90;;;;;;4995131;28;20464;-74
2023/04/20 01:05:22;;;;;;;9.23;7.18;;;8.30;99.90;;;;;;4994258;28;20116;-74
2023/04/20 01:07:48;;;;;;;12.05;7.15;;;8.20;99.90;;;;;;4994793;28;20107;-74
2023/04/20 01:10:14;;;;;;;11.25;8.30;;;8.20;99.90;;;;;;4991956;28;20045;-74
2023/04/20 01:12:40;;;;;;;10.38;7.60;;;8.20;99.90;;;;;;4995965;28;20033;-74
2023/04/20 01:15:07;;;;;;;10.40;7.13;;;8.20;99.90;;;;;;4995730;28;20034;-73
2023/04/20 01:17:35;;;;;;;9.18;7.40;;;8.20;99.90;;;;;;4994635;28;20064;-74
2023/04/20 01:20:01;;;;;;;13.43;8.20;;;8.20;99.90;;;;;;4994755;28;20076;-73
2023/04/20 01:22:27;;;;;;;9.07;7.97;;;8.10;99.90;;;;;;4994234;28;20038;-74
2023/04/20 01:24:53;;;;;;;12.52;8.25;;;8.10;99.90;;;;;;4995238;28;20022;-74
2023/04/20 01:27:19;;;;;;;9.52;7.45;;;8.10;99.90;;;;;;4994659;28;20065;-74
2023/04/20 01:29:44;;;;;;;10.65;7.75;;;8.10;99.90;;;;;;4995760;28;20027;-74
2023/04/20 01:32:11;;;;;;;10.30;7.53;;;8.10;99.90;;;;;;4995975;28;20038;-74
2023/04/20 01:34:37;;;;;;;10.25;8.18;;;8.10;99.90;;;;;;4995031;28;20061;-72
2023/04/20 01:37:07;;;;;;;10.68;8.52;;;8.10;99.90;;;;;;4995194;28;20038;-71
2023/04/20 01:39:38;;;;;;;12.88;9.05;;;8.10;99.90;;;;;;4996631;28;20034;-72
2023/04/20 01:42:04;;;;;;;10.93;8.50;;;8.10;99.90;;;;;;4996171;28;20120;-71
2023/04/20 01:44:30;;;;;;;10.70;8.45;;;8.10;99.90;;;;;;4993909;28;20030;-71
2023/04/20 01:46:55;;;;;;;13.40;8.25;;;8.10;99.90;;;;;;4994027;28;20033;-71
2023/04/20 01:49:21;;;;;;;10.50;8.00;;;8.10;99.90;;;;;;4993150;28;20045;-71
2023/04/20 01:51:47;;;;;;;13.18;9.05;;;8.00;99.90;;;;;;4993634;28;20018;-71
2023/04/20 01:54:12;;;;;;;11.18;8.15;;;7.90;99.90;;;;;;4995751;28;20077;-71
2023/04/20 01:56:38;;;;;;;10.93;8.77;;;8.00;99.90;;;;;;4995795;28;20088;-71
2023/04/20 01:59:03;;;;;;;11.75;8.80;;;7.90;99.90;;;;;;4995513;28;20045;-72
2023/04/20 02:01:29;;;;;;;11.18;8.88;;;8.00;99.90;;;;;;4992652;28;20501;-72
2023/04/20 02:03:55;;;;;;;13.70;9.60;;;8.00;99.90;;;;;;4995633;28;20668;-72
2023/04/20 02:06:20;;;;;;;12.90;9.80;;;8.00;99.90;;;;;;4996232;28;20022;-72
2023/04/20 02:08:46;;;;;;;12.30;9.52;;;7.90;99.90;;;;;;4993603;28;20049;-73
2023/04/20 02:11:12;;;;;;;12.50;8.88;;;8.00;99.90;;;;;;4994968;28;20049;-72
2023/04/20 02:13:37;;;;;;;11.68;8.80;;;8.00;99.90;;;;;;4994805;28;20040;-72
2023/04/20 02:16:03;;;;;;;12.82;9.32;;;7.90;99.90;;;;;;5008149;28;20033;-72
2023/04/20 02:18:31;;;;;;;11.95;8.98;;;8.00;99.90;;;;;;4995338;28;20035;-72
2023/04/20 02:20:57;;;;;;;14.88;8.75;;;8.00;99.90;;;;;;4994795;28;20745;-72
2023/04/20 02:23:23;;;;;;;11.55;9.45;;;8.00;99.90;;;;;;4994381;28;20042;-72
2023/04/20 02:25:48;;;;;;;12.25;9.43;;;8.00;99.90;;;;;;4992102;28;20021;-72
2023/04/20 02:28:14;;;;;;;13.45;10.70;;;8.00;99.90;;;;;;4994472;28;20147;-72
2023/04/20 02:30:40;;;;;;;13.35;10.02;;;8.00;99.90;;;;;;4996233;28;20037;-71
2023/04/20 02:33:06;;;;;;;13.95;9.25;;;8.10;99.90;;;;;;4994799;28;20037;-71
2023/04/20 02:35:32;;;;;;;11.98;8.68;;;8.10;99.90;;;;;;4992364;28;20026;-72
2023/04/20 02:37:57;;;;;;;11.95;9.45;;;8.20;99.90;;;;;;4994743;28;20750;-72
2023/04/20 02:40:23;;;;;;;12.27;9.15;;;8.20;99.90;;;;;;5003826;28;20026;-74
2023/04/20 02:42:48;;;;;;;13.65;10.00;;;8.20;99.90;;;;;;4995545;28;20042;-74
2023/04/20 02:45:14;;;;;;;14.73;10.75;;;8.20;99.90;;;;;;4992445;28;20508;-73
2023/04/20 02:47:40;;;;;;;13.82;10.80;;;8.20;99.90;;;;;;4994405;28;20096;-72
2023/04/20 02:50:07;;;;;;;13.02;10.23;;;8.20;99.90;;;;;;4991450;28;20026;-72
2023/04/20 02:52:33;;;;;;;15.23;11.50;;;8.20;99.90;;;;;;4995393;28;20062;-72
2023/04/20 02:54:58;;;;;;;13.02;10.52;;;8.30;99.90;;;;;;4992603;28;20034;-73
2023/04/20 02:57:24;;;;;;;15.10;11.38;;;8.30;99.90;;;;;;4994479;28;20473;-73
2023/04/20 02:59:50;;;;;;;14.20;10.85;;;8.30;99.90;;;;;;4994072;28;20582;-72
2023/04/20 03:02:16;;;;;;;14.23;10.93;;;8.40;99.90;;;;;;4995882;28;20041;-72
2023/04/20 03:04:41;;;;;;;15.10;10.88;;;8.40;99.90;;;;;;4991642;28;20128;-73
2023/04/20 03:07:08;;;;;;;14.55;11.45;;;8.40;99.90;;;;;;4994250;28;20038;-73
2023/04/20 03:09:35;;;;;;;21.38;12.88;;;8.50;99.90;;;;;;4996067;28;20116;-73
2023/04/20 03:12:01;;;;;;;16.77;12.95;;;8.50;99.90;;;;;;5009180;28;20036;-73
2023/04/20 03:14:27;;;;;;;16.80;12.38;;;8.40;99.90;;;;;;4992003;28;20040;-73
2023/04/20 03:16:52;;;;;;;16.73;12.27;;;8.50;99.90;;;;;;4993846;28;20541;-73
2023/04/20 03:19:18;;;;;;;16.73;12.45;;;8.50;99.90;;;;;;4994246;28;20045;-73
2023/04/20 03:21:44;;;;;;;17.23;12.82;;;8.50;99.90;;;;;;4992137;28;20026;-73
2023/04/20 03:24:10;;;;;;;17.55;12.68;;;8.50;99.90;;;;;;4996255;28;20140;-73
2023/04/20 03:26:35;;;;;;;18.17;12.25;;;8.50;99.90;;;;;;5010179;28;20148;-73
2023/04/20 03:29:01;;;;;;;17.00;12.57;;;8.60;99.90;;;;;;4998899;28;20026;-73
2023/04/20 03:31:27;;;;;;;16.67;11.52;;;8.60;99.90;;;;;;4997094;28;20382;-73
2023/04/20 03:33:52;;;;;;;17.40;12.57;;;8.60;99.90;;;;;;4999818;28;20022;-73
2023/04/20 03:36:18;;;;;;;17.77;12.75;;;8.60;99.90;;;;;;4997581;28;20037;-73
2023/04/20 03:38:44;;;;;;;16.30;11.35;;;8.60;99.90;;;;;;4997053;28;21553;-73
2023/04/20 03:41:09;;;;;;;15.68;11.70;;;8.60;99.90;;;;;;4997991;28;20018;-73
2023/04/20 03:43:35;;;;;;;16.73;11.88;;;8.60;99.90;;;;;;4997700;28;20045;-73
2023/04/20 03:46:00;;;;;;;16.98;11.60;;;8.60;99.90;;;;;;4997880;28;21916;-72
2023/04/20 03:48:26;;;;;;;17.10;11.73;;;8.70;99.90;;;;;;5002486;28;20493;-73
2023/04/20 03:50:52;;;;;;;15.25;11.23;;;8.70;99.90;;;;;;4997235;28;20038;-73
2023/04/20 03:53:18;;;;;;;19.17;13.38;;;8.70;99.90;;;;;;4995581;28;20057;-73
2023/04/20 03:55:43;;;;;;;15.77;11.75;;;8.80;99.90;;;;;;4997742;28;20635;-74
2023/04/20 03:58:09;;;;;;;14.73;11.48;;;8.80;99.90;;;;;;4997088;28;20022;-73
2023/04/20 04:00:34;;;;;;;17.23;12.65;;;8.70;99.90;;;;;;4998146;28;20089;-74
2023/04/20 04:03:00;;;;;;;18.80;12.88;;;8.80;99.90;;;;;;4998057;28;20048;-74
2023/04/20 04:05:26;;;;;;;17.88;11.93;;;8.80;99.90;;;;;;4997383;28;20036;-73
2023/04/20 04:07:51;;;;;;;19.42;14.38;;;8.80;99.90;;;;;;4998802;28;20469;-73
2023/04/20 04:10:20;;;;;;;18.38;13.13;;;8.80;99.90;;;;;;4996265;28;20032;-73
2023/04/20 04:12:46;;;;;;;19.05;13.50;;;8.90;99.90;;;;;;4995116;28;20045;-73
2023/04/20 04:15:11;;;;;;;17.65;12.77;;;8.90;99.90;;;;;;4995204;28;20042;-73
2023/04/20 04:17:37;;;;;;;17.60;12.95;;;8.90;99.90;;;;;;4997750;28;20321;-73
2023/04/20 04:20:07;;;;;;;18.67;13.25;;;9.00;99.90;;;;;;4995669;28;20048;-72
2023/04/20 04:22:32;;;;;;;18.75;12.65;;;9.00;99.90;;;;;;4996098;28;20068;-73
2023/04/20 04:24:58;;;;;;;18.05;12.52;;;9.00;99.90;;;;;;4994944;28;20390;-73
2023/04/20 04:27:24;;;;;;;19.10;12.38;;;9.00;99.90;;;;;;4995431;28;20548;-73
2023/04/20 04:29:49;;;;;;;20.75;13.13;;;9.00;99.90;;;;;;4996485;28;20030;-73
2023/04/20 04:32:16;;;;;;;16.00;12.07;;;9.00;99.90;;;;;;4996704;28;20030;-73
2023/04/20 04:34:43;;;;;;;19.10;12.23;;;9.00;99.90;;;;;;4996731;28;20076;-74
2023/04/20 04:37:13;;;;;;;17.98;12.88;;;9.00;99.90;;;;;;5011002;28;20034;-74
2023/04/20 04:39:38;;;;;;;19.63;12.68;;;9.00;99.90;;;;;;4995778;28;20045;-73
2023/04/20 04:42:04;;;;;;;19.63;12.63;;;9.00;99.90;;;;;;4995100;28;20025;-74
2023/04/20 04:44:30;;;;;;;21.00;14.45;;;9.00;99.90;;;;;;4996218;28;20117;-72
2023/04/20 04:46:56;;;;;;;22.23;14.75;;;9.00;99.90;;;;;;4996539;28;20686;-72
2023/04/20 04:49:23;;;;;;;26.05;14.32;;;9.00;99.90;;;;;;4995740;28;22089;-73
2023/04/20 04:51:49;;;;;;;21.85;14.40;;;9.00;99.90;;;;;;4997144;28;20033;-73
2023/04/20 04:54:15;;;;;;;25.23;16.30;;;8.90;99.90;;;;;;4996366;28;20658;-73
2023/04/20 04:56:40;;;;;;;27.42;17.67;;;9.00;99.90;;;;;;4996175;28;20085;-73
2023/04/20 04:59:06;;;;;;;23.15;15.85;;;8.90;99.90;;;;;;4997332;28;20030;-73
2023/04/20 05:01:31;;;;;;;23.75;15.65;;;8.90;99.90;;;;;;4996631;28;20132;-74
2023/04/20 05:03:57;;;;;;;20.65;14.48;;;9.00;99.90;;;;;;5010646;28;20041;-74
2023/04/20 05:06:22;;;;;;;24.42;16.38;;;9.00;99.90;;;;;;5009845;28;20057;-74
2023/04/20 05:08:48;;;;;;;21.88;13.30;;;9.00;99.90;;;;;;4993490;28;20076;-74
2023/04/20 05:11:14;;;;;;;22.70;13.63;;;9.00;99.90;;;;;;4996543;28;20080;-74
2023/04/20 05:13:40;;;;;;;22.05;15.07;;;9.00;99.90;;;;;;4995024;28;20041;-73
2023/04/20 05:16:06;;;;;;;22.67;14.02;;;9.00;99.90;;;;;;4995196;28;20108;-72
2023/04/20 05:18:32;;;;;;;22.73;15.05;;;9.10;99.90;;;;;;4996050;28;20141;-73
2023/04/20 05:20:58;;;;;;;21.52;15.02;;;9.10;99.90;;;;;;4994205;28;20623;-73
2023/04/20 05:23:23;;;;;;;21.10;14.23;;;9.20;99.90;;;;;;4995511;28;20046;-73
2023/04/20 05:25:49;;;;;;;22.33;15.32;;;9.20;99.90;;;;;;5000096;28;20030;-73
2023/04/20 05:28:14;;;;;;;18.88;13.68;;;9.20;99.90;;;;;;4994694;28;20387;-73
2023/04/20 05:30:40;;;;;;;18.90;14.55;;;9.20;99.90;;;;;;4995391;28;20038;-73
2023/04/20 05:33:06;;;;;;;23.30;16.48;;;9.20;99.90;;;;;;4995620;28;20044;-73
2023/04/20 05:35:31;;;;;;;22.83;15.50;;;9.20;99.90;;;;;;4998087;28;20466;-73
2023/04/20 05:37:59;;;;;;;21.80;16.15;;;9.30;99.90;;;;;;4996938;28;20026;-73
2023/04/20 05:40:25;;;;;;;20.90;13.55;;;9.40;99.90;;;;;;4995145;28;20034;-73
2023/04/20 05:42:50;;;;;;;21.65;14.73;;;9.40;99.90;;;;;;4995023;28;20084;-74
2023/04/20 05:45:16;;;;;;;21.73;15.57;;;9.40;99.90;;;;;;4993239;28;20382;-74
2023/04/20 05:47:51;;;;;;;21.48;14.45;;;9.40;99.90;;;;;;4995116;28;20041;-74
2023/04/20 05:50:17;;;;;;;19.13;12.68;;;9.50;99.90;;;;;;4993557;28;20033;-74
2023/04/20 05:52:43;;;;;;;21.98;15.13;;;9.40;99.90;;;;;;4994703;28;20026;-73
2023/04/20 05:55:08;;;;;;;20.13;14.70;;;9.50;99.90;;;;;;4994360;28;20034;-73
2023/04/20 05:57:41;;;;;;;20.00;14.23;;;9.50;99.90;;;;;;4995217;28;21431;-73
2023/04/20 06:00:11;;;;;;;22.17;15.07;;;9.40;99.90;;;;;;5008495;28;20045;-73
2023/04/20 06:02:36;;;;;;;22.60;15.15;;;9.40;99.90;;;;;;4995393;28;20084;-73
2023/04/20 06:05:02;;;;;;;22.52;14.65;;;9.50;99.90;;;;;;4992081;28;20026;-73
2023/04/20 06:07:28;;;;;;;20.98;15.20;;;9.50;99.90;;;;;;4991434;28;20065;-72
2023/04/20 06:09:53;;;;;;;20.95;14.55;;;9.50;99.90;;;;;;4992354;28;20466;-71
2023/04/20 06:12:19;;;;;;;19.25;14.30;;;9.50;99.90;;;;;;4991394;28;20034;-73
2023/04/20 06:14:45;;;;;;;21.42;14.93;;;9.60;99.90;;;;;;4993060;28;20026;-75
2023/04/20 06:17:11;;;;;;;21.52;14.30;;;9.70;99.90;;;;;;4995318;28;20038;-74
2023/04/20 06:19:36;;;;;;;22.55;14.82;;;9.70;99.90;;;;;;4992104;28;20026;-73
2023/04/20 06:22:07;;;;;;;19.85;15.00;;;9.70;99.90;;;;;;4994103;28;20034;-73
2023/04/20 06:24:33;;;;;;;19.45;14.95;;;9.80;99.90;;;;;;4994826;28;20049;-73
2023/04/20 06:27:00;;;;;;;20.05;14.82;;;9.90;99.90;;;;;;4994056;28;20058;-73
2023/04/20 06:29:25;;;;;;;20.83;14.27;;;9.90;99.90;;;;;;4995567;28;20489;-71
2023/04/20 06:31:51;;;;;;;21.02;14.80;;;9.80;99.90;;;;;;4992569;28;20204;-72
2023/04/20 06:34:17;;;;;;;17.65;13.45;;;9.90;99.90;;;;;;4993993;28;20577;-72
2023/04/20 06:36:42;;;;;;;19.50;14.55;;;9.80;99.90;;;;;;4994074;28;21709;-71
2023/04/20 06:39:10;;;;;;;22.83;13.77;;;9.90;99.90;;;;;;4994155;28;20138;-71
2023/04/20 06:41:36;;;;;;;22.38;14.95;;;9.90;99.90;;;;;;4994279;28;20030;-72
2023/04/20 06:44:02;;;;;;;20.40;14.38;;;9.90;99.90;;;;;;4994636;28;20071;-72
2023/04/20 06:46:27;;;;;;;22.15;14.38;;;9.90;99.90;;;;;;4993484;28;21466;-72
2023/04/20 06:48:53;;;;;;;20.45;14.02;;;9.90;99.90;;;;;;4995227;28;20253;-71
2023/04/20 06:51:18;;;;;;;18.23;14.43;;;10.00;99.90;;;;;;4993832;28;20125;-72
2023/04/20 06:53:44;;;;;;;19.70;14.27;;;10.10;99.90;;;;;;4994467;28;20038;-72
2023/04/20 06:56:11;;;;;;;19.02;14.50;;;10.10;99.90;;;;;;4997636;28;20044;-72
2023/04/20 06:58:36;;;;;;;20.13;14.80;;;10.20;99.90;;;;;;4993772;28;20057;-72
2023/04/20 07:01:02;;;;;;;18.70;13.07;;;10.20;99.90;;;;;;4999824;28;20076;-72
2023/04/20 07:03:28;;;;;;;17.40;13.13;;;10.30;99.90;;;;;;4997455;28;20037;-72
2023/04/20 07:05:53;;;;;;;18.95;13.98;;;10.40;99.90;;;;;;4996383;28;20026;-72
2023/04/20 07:08:19;;;;;;;17.45;12.63;;;10.40;99.90;;;;;;4995381;28;20042;-70
2023/04/20 07:10:45;;;;;;;19.30;14.30;;;10.40;99.90;;;;;;4995083;28;20105;-72
2023/04/20 07:13:11;;;;;;;21.05;15.00;;;10.50;99.90;;;;;;4997529;28;20297;-72
2023/04/20 07:15:36;;;;;;;18.73;13.32;;;10.60;99.90;;;;;;4996526;28;20030;-72
2023/04/20 07:18:02;;;;;;;18.58;14.65;;;10.70;99.90;;;;;;4998387;28;20486;-72
2023/04/20 07:20:27;;;;;;;19.40;13.57;;;10.70;99.90;;;;;;4997116;28;20036;-72
2023/04/20 07:22:53;;;;;;;18.88;14.05;;;10.80;99.90;;;;;;4996546;28;20057;-72
2023/04/20 07:25:19;;;;;;;20.10;14.85;;;10.80;99.90;;;;;;4996390;28;20371;-72
2023/04/20 07:27:44;;;;;;;22.90;14.82;;;10.90;99.90;;;;;;4996760;28;20109;-72
2023/04/20 07:30:10;;;;;;;21.13;15.10;;;11.00;99.90;;;;;;4996404;28;20030;-72
2023/04/20 07:32:37;;;;;;;20.73;15.68;;;11.00;99.90;;;;;;4996066;28;20694;-72
2023/04/20 07:35:04;;;;;;;19.48;14.68;;;11.00;99.90;;;;;;4997501;28;20034;-72
2023/04/20 07:37:30;;;;;;;21.38;15.38;;;11.00;99.90;;;;;;4994609;28;20081;-72
2023/04/20 07:39:56;;;;;;;19.70;15.35;;;11.00;99.90;;;;;;4997184;28;20433;-71
2023/04/20 07:42:21;;;;;;;21.08;14.80;;;11.00;99.90;;;;;;4997008;28;20112;-72
2023/04/20 07:44:47;;;;;;;19.92;14.60;;;10.90;99.90;;;;;;4996809;28;20049;-72
2023/04/20 07:47:13;;;;;;;20.42;14.32;;;11.00;99.90;;;;;;4997039;28;20022;-72
2023/04/20 07:49:40;;;;;;;19.73;13.93;;;11.00;99.90;;;;;;4996264;28;20062;-72
2023/04/20 07:52:06;;;;;;;22.60;15.40;;;11.10;99.90;;;;;;4997630;28;21414;-73
2023/04/20 07:54:32;;;;;;;19.13;14.32;;;11.10;99.90;;;;;;4996117;28;20057;-72
2023/04/20 07:56:58;;;;;;;21.67;15.02;;;11.00;99.90;;;;;;4995523;28;20038;-71
2023/04/20 07:59:24;;;;;;;19.70;14.38;;;11.10;99.90;;;;;;4997092;28;20097;-73
2023/04/20 08:01:50;;;;;;;19.58;14.10;;;11.10;99.90;;;;;;4999749;28;20116;-71
2023/04/20 08:04:16;;;;;;;19.58;14.23;;;11.20;99.90;;;;;;4995395;28;20477;-72
2023/04/20 08:06:42;;;;;;;19.20;14.18;;;11.30;99.90;;;;;;4995685;28;20026;-72
2023/04/20 08:09:07;;;;;;;18.05;13.73;;;11.20;99.90;;;;;;4992164;28;20042;-71
2023/04/20 08:11:34;;;;;;;17.27;12.57;;;11.10;99.90;;;;;;4994185;28;20028;-73
2023/04/20 08:13:59;;;;;;;17.10;12.48;;;11.20;99.90;;;;;;4995156;28;20252;-67
2023/04/20 08:16:25;;;;;;;18.48;14.18;;;11.30;99.90;;;;;;4993217;28;20641;-68
2023/04/20 08:18:50;;;;;;;17.77;12.88;;;11.30;99.90;;;;;;4994239;28;20037;-68
2023/04/20 08:21:16;;;;;;;16.90;11.98;;;11.40;99.90;;;;;;4994057;28;20026;-68
2023/04/20 08:23:42;;;;;;;15.95;12.80;;;11.50;99.90;;;;;;4995063;28;20509;-69
2023/04/20 08:26:07;;;;;;;18.48;13.75;;;11.60;99.90;;;;;;4993704;28;20422;-68
2023/04/20 08:28:33;;;;;;;16.98;13.38;;;11.70;99.90;;;;;;4996532;28;20505;-69
2023/04/20 08:30:58;;;;;;;17.38;12.65;;;11.70;99.90;;;;;;4993477;28;20104;-69
2023/04/20 08:33:24;;;;;;;18.92;13.55;;;11.70;99.90;;;;;;4994288;28;20489;-68
2023/04/20 08:35:50;;;;;;;17.08;12.48;;;11.70;99.90;;;;;;4990898;28;20076;-68
2023/04/20 08:38:16;;;;;;;17.83;13.30;;;11.70;99.90;;;;;;4995627;28;20034;-68
2023/04/20 08:40:42;;;;;;;18.38;13.50;;;11.60;99.90;;;;;;4995074;28;20088;-69
2023/04/20 08:43:08;;;;;;;17.42;14.10;;;11.50;99.90;;;;;;4991084;28;20524;-68
2023/04/20 08:45:34;;;;;;;17.00;13.60;;;11.40;99.90;;;;;;4983832;28;20124;-68
2023/04/20 08:48:09;;;;;;;15.98;13.18;;;11.30;99.90;;;;;;5002747;28;20033;-68
2023/04/20 08:50:35;;;;;;;17.17;12.63;;;11.20;99.90;;;;;;4994157;28;20046;-68
2023/04/20 08:53:03;;;;;;;18.63;14.32;;;11.20;99.90;;;;;;4996400;28;20471;-68
2023/04/20 08:55:28;;;;;;;17.92;13.73;;;11.10;99.90;;;;;;4997997;28;20803;-69
2023/04/20 08:57:54;;;;;;;17.77;13.05;;;11.00;99.90;;;;;;5008804;28;20033;-69
2023/04/20 09:00:20;;;;;;;16.70;12.95;;;11.00;99.90;;;;;;5012337;28;20077;-69
2023/04/20 09:02:54;;;;;;;20.10;12.75;;;11.00;99.90;;;;;;4996515;28;20030;-69
2023/04/20 09:05:30;;;;;;;17.33;12.48;;;10.90;99.90;;;;;;4996329;28;20053;-69
2023/04/20 09:08:00;;;;;;;18.55;13.27;;;10.90;99.90;;;;;;4995685;28;20067;-68
2023/04/20 09:10:41;;;;;;;18.55;13.30;;;10.80;99.90;;;;;;4999268;28;20111;-69
2023/04/20 09:13:07;;;;;;;18.85;13.57;;;10.70;99.90;;;;;;4997190;28;20262;-68
2023/04/20 09:15:33;;;;;;;17.60;13.25;;;10.70;99.90;;;;;;4998468;28;20449;-69
2023/04/20 09:17:58;;;;;;;20.60;14.57;;;10.60;99.90;;;;;;4996953;28;20034;-69
2023/04/20 09:20:33;;;;;;;21.08;14.95;;;10.60;99.90;;;;;;4998328;28;20037;-68
2023/04/20 09:23:20;;;;;;;21.05;14.00;;;10.60;99.90;;;;;;4996294;28;20117;-68
2023/04/20 09:25:49;;;;;;;18.02;13.68;;;10.50;99.90;;;;;;4995604;28;20076;-68
2023/04/20 09:28:16;;;;;;;19.13;13.82;;;10.50;99.90;;;;;;4999840;28;20025;-68
2023/04/20 09:30:44;;;;;;;17.85;13.38;;;10.50;99.90;;;;;;4997822;28;20034;-69
2023/04/20 09:33:13;;;;;;;19.20;13.90;;;10.50;99.90;;;;;;4998155;28;20419;-68
2023/04/20 09:35:43;;;;;;;19.42;14.15;;;10.50;99.90;;;;;;4997560;28;20104;-69
2023/04/20 09:38:10;;;;;;;15.73;12.27;;;10.50;99.90;;;;;;4996979;28;22228;-69
2023/04/20 09:40:36;;;;;;;17.13;12.50;;;10.60;99.90;;;;;;4995619;28;20470;-69
2023/04/20 09:43:24;;;;;;;17.63;13.73;;;10.70;99.90;;;;;;4997963;28;20045;-69
2023/04/20 09:45:50;;;;;;;16.02;11.70;;;10.80;99.90;;;;;;4996048;28;21779;-69
2023/04/20 09:48:20;;;;;;;18.10;13.30;;;10.90;99.90;;;;;;4997327;28;20037;-68
2023/04/20 09:50:46;;;;;;;16.15;12.88;;;11.00;99.90;;;;;;4997756;28;20481;-68
2023/04/20 09:53:15;;;;;;;16.83;12.55;;;11.00;99.90;;;;;;4996436;28;20133;-67
2023/04/20 09:55:46;;;;;;;18.27;12.48;;;11.10;99.90;;;;;;4997131;28;20096;-66
2023/04/20 09:58:12;;;;;;;18.70;13.35;;;11.20;99.90;;;;;;4996930;28;20033;-67
2023/04/20 10:00:38;;;;;;;17.52;11.18;;;11.30;99.90;;;;;;4995242;28;20054;-68
2023/04/20 10:03:05;;;;;;;14.35;11.52;;;11.30;99.90;;;;;;4996815;28;20084;-67
2023/04/20 10:05:36;;;;;;;16.33;11.48;;;11.30;99.90;;;;;;4997306;28;20054;-66
2023/04/20 10:08:02;;;;;;;15.20;11.20;;;11.50;99.90;;;;;;4997590;28;20444;-65
2023/04/20 10:10:28;;;;;;;14.38;11.38;;;11.60;99.90;;;;;;4997824;28;20094;-66
2023/04/20 10:12:55;;;;;;;15.63;11.63;;;11.60;99.90;;;;;;4997358;28;20034;-66
2023/04/20 10:15:23;;;;;;;14.52;10.88;;;11.80;99.90;;;;;;4996795;28;20061;-65
2023/04/20 10:17:49;;;;;;;14.73;10.57;;;11.80;99.90;;;;;;4996363;28;20029;-65
2023/04/20 10:20:26;;;;;;;15.55;9.85;;;11.90;99.90;;;;;;4995755;28;20112;-65
2023/04/20 10:22:53;;;;;;;14.63;10.43;;;11.90;99.90;;;;;;4998453;28;20041;-65
2023/04/20 10:25:23;;;;;;;14.82;11.15;;;11.80;99.90;;;;;;4999662;28;20397;-65
2023/04/20 10:28:07;;;;;;;18.73;12.82;;;11.90;99.90;;;;;;4996241;28;20079;-65
2023/04/20 10:30:34;;;;;;;13.18;10.82;;;12.00;99.90;;;;;;4996845;28;20038;-65
2023/04/20 10:33:11;;;;;;;14.43;11.23;;;12.10;99.90;;;;;;4999025;28;20678;-65
2023/04/20 10:35:57;;;;;;;15.52;10.75;;;12.30;99.90;;;;;;4999116;28;20348;-65
2023/04/20 10:38:31;;;;;;;13.60;9.82;;;12.40;99.90;;;;;;5001022;28;20025;-64
2023/04/20 10:41:08;;;;;;;12.52;9.60;;;12.40;99.90;;;;;;5002096;28;20316;-65
2023/04/20 10:43:34;;;;;;;13.30;10.20;;;12.50;99.90;;;;;;5002275;28;20512;-65
2023/04/20 10:46:11;;;;;;;12.95;9.75;;;12.50;99.90;;;;;;5000913;28;20108;-65
2023/04/20 10:48:37;;;;;;;12.55;10.00;;;12.60;99.90;;;;;;4998848;28;20120;-65
2023/04/20 10:51:09;;;;;;;12.60;10.07;;;12.60;99.90;;;;;;5002627;28;20052;-66
2023/04/20 10:53:35;;;;;;;12.95;10.63;;;12.70;99.90;;;;;;5000224;28;20505;-65
2023/04/20 10:56:00;;;;;;;14.52;10.02;;;12.70;99.90;;;;;;5000648;28;20025;-64
2023/04/20 10:58:27;;;;;;;12.32;10.45;;;12.70;99.90;;;;;;5003194;28;20162;-65
2023/04/20 11:01:00;;;;;;;13.15;9.93;;;12.80;99.90;;;;;;5001733;28;20581;-65
2023/04/20 11:03:30;;;;;;;14.13;10.15;;;12.80;99.90;;;;;;5000113;28;20147;-65
2023/04/20 11:06:00;;;;;;;16.27;12.05;;;12.80;99.90;;;;;;5000264;28;20030;-66
2023/04/20 11:08:42;;;;;;;13.98;10.25;;;12.80;99.90;;;;;;5001776;28;20611;-66
2023/04/20 11:11:28;;;;;;;14.50;10.82;;;12.90;99.90;;;;;;5001021;28;20466;-66
2023/04/20 11:14:11;;;;;;;15.13;10.45;;;12.90;99.90;;;;;;4999606;28;20023;-66
2023/04/20 11:16:38;;;;;;;15.77;10.65;;;12.90;99.90;;;;;;5000381;28;20125;-65
2023/04/20 11:19:04;;;;;;;13.48;11.07;;;12.90;99.90;;;;;;4999076;28;20025;-65
2023/04/20 11:21:38;;;;;;;15.43;11.40;;;13.00;99.90;;;;;;4996828;28;20064;-65
2023/04/20 11:24:20;;;;;;;13.98;11.35;;;13.10;99.90;;;;;;5000927;28;20397;-65
2023/04/20 11:26:48;;;;;;;14.85;11.48;;;13.20;99.90;;;;;;5001245;28;20037;-65
2023/04/20 11:29:29;;;;;;;15.60;11.98;;;13.20;99.90;;;;;;5004067;28;20418;-65
2023/04/20 11:31:55;;;;;;;13.48;10.48;;;13.20;99.90;;;;;;5001422;28;20079;-65
2023/04/20 11:34:22;;;;;;;15.95;11.57;;;13.20;99.90;;;;;;4999864;28;20509;-65
2023/04/20 11:36:49;;;;;;;15.48;11.48;;;13.30;99.90;;;;;;4999915;28;20674;-65
2023/04/20 11:39:25;;;;;;;15.60;11.13;;;13.40;99.90;;;;;;5012099;28;20045;-65
2023/04/20 11:41:52;;;;;;;14.82;11.13;;;13.60;99.90;;;;;;4998407;28;20156;-65
2023/04/20 11:44:20;;;;;;;16.88;10.57;;;13.80;99.90;;;;;;4998208;28;21036;-65
2023/04/20 11:46:47;;;;;;;13.80;11.70;;;13.90;99.90;;;;;;4998987;28;20117;-65
2023/04/20 11:49:14;;;;;;;16.02;11.02;;;13.90;99.90;;;;;;4998749;28;20092;-65
2023/04/20 11:51:40;;;;;;;13.45;11.00;;;14.00;99.50;;;;;;5001068;28;20088;-65
2023/04/20 11:54:06;;;;;;;14.43;11.70;;;14.10;99.50;;;;;;5000821;28;20424;-65
2023/04/20 11:56:31;;;;;;;14.93;10.40;;;14.20;99.40;;;;;;5000995;28;20034;-65
2023/04/20 11:58:57;;;;;;;14.30;10.90;;;14.30;99.40;;;;;;4999788;28;20030;-64
2023/04/20 12:01:23;;;;;;;15.15;9.90;;;14.40;99.10;;;;;;4998128;28;20132;-65
2023/04/20 12:03:48;;;;;;;13.80;10.50;;;14.40;98.80;;;;;;4999575;28;20034;-65
2023/04/20 12:06:14;;;;;;;15.27;11.27;;;14.40;98.90;;;;;;5010446;28;20026;-65
2023/04/20 12:08:41;;;;;;;14.40;11.55;;;14.50;99.00;;;;;;4998193;28;20038;-64
2023/04/20 12:11:07;;;;;;;13.55;10.98;;;14.40;98.80;;;;;;4999201;28;20040;-64
2023/04/20 12:13:33;;;;;;;15.25;10.90;;;14.50;99.00;;;;;;4998310;28;20022;-64
2023/04/20 12:15:58;;;;;;;14.32;10.88;;;14.60;99.00;;;;;;4997780;28;20038;-65
2023/04/20 12:18:24;;;;;;;14.52;11.98;;;14.60;98.70;;;;;;4997569;28;20149;-64
2023/04/20 12:20:51;;;;;;;17.05;11.40;;;14.50;98.70;;;;;;4998953;28;20473;-64
2023/04/20 12:23:16;;;;;;;13.32;10.80;;;14.70;98.90;;;;;;4997059;28;20041;-64
2023/04/20 12:25:42;;;;;;;13.63;10.88;;;14.80;98.90;;;;;;4997460;28;20022;-65
2023/04/20 12:28:08;;;;;;;11.60;9.82;;;15.00;98.90;;;;;;5000239;28;20044;-64
2023/04/20 12:30:34;;;;;;;14.70;11.50;;;15.20;98.90;;;;;;4996002;28;20021;-64
2023/04/20 12:33:01;;;;;;;13.77;10.88;;;15.30;98.70;;;;;;4996524;28;20544;-63
2023/04/20 12:35:27;;;;;;;15.18;11.00;;;15.40;98.40;;;;;;4997046;28;20045;-64